Terminal Aerodrome Forecast
Issued by NWS

Home | Current Version | Previous Version | Text Only | Print | Product List | Glossary On
Versions: 1 2 3 4 5 6 7 8 9 10 11 12 13 14 15 16 17 18 19 20 21 22
000
FTUS44 KMAF 241400 AAA
TAFPEQ
TAF AMD
KPEQ 241433Z 2415/2512 VRB05KT 1/4SM FG OVC001
      TEMPO 2415/2417 4SM BR BKN005
     FM241700 14005KT P6SM SKC=

USA.gov is the U.S. government's official web portal to all federal, state and local government web resources and services.